createdAt,value
2023-02-09T00:02:23.953Z,18.10
2023-02-09T00:04:50.675Z,19.57
2023-02-09T00:07:17.330Z,19.63
2023-02-09T00:09:45.384Z,18.63
2023-02-09T00:12:30.743Z,19.10
2023-02-09T00:14:57.341Z,20.50
2023-02-09T00:17:24.049Z,20.07
2023-02-09T00:19:50.677Z,18.83
2023-02-09T00:22:17.300Z,18.97
2023-02-09T00:24:43.997Z,19.80
2023-02-09T00:27:10.727Z,19.37
2023-02-09T00:29:37.453Z,17.73
2023-02-09T00:32:04.423Z,18.73
2023-02-09T00:34:31.108Z,18.23
2023-02-09T00:36:57.812Z,17.40
2023-02-09T00:39:24.457Z,17.90
2023-02-09T00:42:06.200Z,18.70
2023-02-09T00:44:37.940Z,18.30
2023-02-09T00:47:06.732Z,19.83
2023-02-09T00:49:33.827Z,19.73
2023-02-09T00:52:00.723Z,19.50
2023-02-09T00:54:27.591Z,20.60
2023-02-09T00:56:58.701Z,19.50
2023-02-09T00:59:26.091Z,20.17
2023-02-09T01:01:52.767Z,20.27
2023-02-09T01:04:19.421Z,19.00
2023-02-09T01:06:46.126Z,18.73
2023-02-09T01:09:12.848Z,19.93
2023-02-09T01:11:39.524Z,16.10
2023-02-09T01:14:06.310Z,18.53
2023-02-09T01:16:33.077Z,18.37
2023-02-09T01:19:01.906Z,18.90
2023-02-09T01:21:30.571Z,21.53
2023-02-09T01:23:57.918Z,19.67
2023-02-09T01:26:24.601Z,19.50
2023-02-09T01:28:53.140Z,18.57
2023-02-09T01:31:32.029Z,19.27
2023-02-09T01:34:01.042Z,18.37
2023-02-09T01:36:28.648Z,20.03
2023-02-09T01:38:56.777Z,19.27
2023-02-09T01:41:23.761Z,20.07
2023-02-09T01:44:07.212Z,20.20
2023-02-09T01:46:35.906Z,19.77
2023-02-09T01:49:13.534Z,20.00
2023-02-09T01:52:03.400Z,20.30
2023-02-09T01:54:33.022Z,19.77
2023-02-09T01:57:08.137Z,18.90
2023-02-09T01:59:36.875Z,21.20
2023-02-09T02:02:05.786Z,20.30
2023-02-09T02:04:34.137Z,19.63
2023-02-09T02:07:11.262Z,20.47
2023-02-09T02:09:37.926Z,20.67
2023-02-09T02:12:05.560Z,18.97
2023-02-09T02:14:35.443Z,20.40
2023-02-09T02:17:37.386Z,19.43
2023-02-09T02:20:13.139Z,21.13
2023-02-09T02:22:39.655Z,19.63
2023-02-09T02:25:54.447Z,21.37
2023-02-09T02:28:21.059Z,19.40
2023-02-09T02:31:02.956Z,20.87
2023-02-09T02:33:40.408Z,19.33
2023-02-09T02:36:21.293Z,19.90
2023-02-09T02:39:11.143Z,20.17
2023-02-09T02:42:06.978Z,20.70
2023-02-09T02:44:40.288Z,21.03
2023-02-09T02:47:11.349Z,22.67
2023-02-09T02:49:42.497Z,18.43
2023-02-09T02:52:11.327Z,19.53
2023-02-09T02:54:42.400Z,20.23
2023-02-09T02:57:15.628Z,22.03
2023-02-09T02:59:46.558Z,21.07
2023-02-09T03:02:35.004Z,20.90
2023-02-09T03:05:04.331Z,19.57
2023-02-09T03:07:31.922Z,21.03
2023-02-09T03:09:58.696Z,19.10
2023-02-09T03:12:51.089Z,18.83
2023-02-09T03:15:40.272Z,18.17
2023-02-09T03:18:31.196Z,19.13
2023-02-09T03:21:12.198Z,20.17
2023-02-09T03:24:14.481Z,18.73
2023-02-09T03:26:54.370Z,19.17
2023-02-09T03:29:23.823Z,18.60
2023-02-09T03:31:51.198Z,21.87
2023-02-09T03:34:18.773Z,21.67
2023-02-09T03:36:51.872Z,21.47
2023-02-09T03:39:18.573Z,22.77
2023-02-09T03:41:45.287Z,21.17
2023-02-09T03:44:27.117Z,21.27
2023-02-09T03:46:55.782Z,19.37
2023-02-09T03:49:22.988Z,19.37
2023-02-09T03:51:49.746Z,20.17
2023-02-09T03:54:16.496Z,20.40
2023-02-09T03:56:43.165Z,20.87
2023-02-09T03:59:09.881Z,21.37
2023-02-09T04:01:36.667Z,21.27
2023-02-09T04:04:04.155Z,20.43
2023-02-09T04:06:32.244Z,17.97
2023-02-09T04:08:59.824Z,20.43
2023-02-09T04:11:26.942Z,18.97
2023-02-09T04:13:53.838Z,17.27
2023-02-09T04:16:20.652Z,17.73
2023-02-09T04:18:47.458Z,20.33
2023-02-09T04:21:14.171Z,17.93
2023-02-09T04:23:40.944Z,20.40
2023-02-09T04:26:07.629Z,19.73
2023-02-09T04:28:34.843Z,19.87
2023-02-09T04:31:01.585Z,19.50
2023-02-09T04:33:28.363Z,18.30
2023-02-09T04:35:54.995Z,19.40
2023-02-09T04:38:22.369Z,18.43
2023-02-09T04:40:51.000Z,18.47
2023-02-09T04:43:18.494Z,21.10
2023-02-09T04:45:45.775Z,19.33
2023-02-09T04:48:15.039Z,17.50
2023-02-09T04:50:42.429Z,18.33
2023-02-09T04:53:09.203Z,19.43
2023-02-09T04:55:40.364Z,19.03
2023-02-09T04:58:25.526Z,19.17
2023-02-09T05:00:55.380Z,18.50
2023-02-09T05:03:24.489Z,18.10
2023-02-09T05:05:58.574Z,17.47
2023-02-09T05:08:25.453Z,18.17
2023-02-09T05:10:53.175Z,18.40
2023-02-09T05:13:21.320Z,19.67
2023-02-09T05:15:48.102Z,18.57
2023-02-09T05:18:14.951Z,17.20
2023-02-09T05:20:43.428Z,19.13
2023-02-09T05:23:10.844Z,19.20
2023-02-09T05:25:38.176Z,17.83
2023-02-09T05:28:05.817Z,18.13
2023-02-09T05:30:32.961Z,18.27
2023-02-09T05:32:59.626Z,18.27
2023-02-09T05:35:26.437Z,17.50
2023-02-09T05:37:53.171Z,17.77
2023-02-09T05:40:19.908Z,17.50
2023-02-09T05:42:46.531Z,17.40
2023-02-09T05:45:13.242Z,17.67
2023-02-09T05:47:39.969Z,16.73
2023-02-09T05:50:06.789Z,15.70
2023-02-09T05:52:33.580Z,17.93
2023-02-09T05:55:00.252Z,17.43
2023-02-09T05:57:26.976Z,15.97
2023-02-09T05:59:53.621Z,15.80
2023-02-09T06:02:20.712Z,17.20
2023-02-09T06:04:47.414Z,16.03
2023-02-09T06:07:14.109Z,16.10
2023-02-09T06:09:40.915Z,15.40
2023-02-09T06:12:07.706Z,15.77
2023-02-09T06:14:34.372Z,15.30
2023-02-09T06:17:01.270Z,15.53
2023-02-09T06:19:30.194Z,13.57
2023-02-09T06:21:56.847Z,16.00
2023-02-09T06:24:23.538Z,16.33
2023-02-09T06:26:50.298Z,15.93
2023-02-09T06:29:16.919Z,15.50
2023-02-09T06:31:43.672Z,15.67
2023-02-09T06:34:10.508Z,15.00
2023-02-09T06:36:37.215Z,14.10
2023-02-09T06:39:08.189Z,14.73
2023-02-09T06:41:34.858Z,15.10
2023-02-09T06:44:01.604Z,13.30
2023-02-09T06:46:28.832Z,13.60
2023-02-09T06:48:55.668Z,15.17
2023-02-09T06:51:22.593Z,13.60
2023-02-09T06:53:49.514Z,14.93
2023-02-09T06:56:16.256Z,14.03
2023-02-09T06:58:43.017Z,13.10
2023-02-09T07:01:12.450Z,13.83
2023-02-09T07:03:39.246Z,14.37
2023-02-09T07:06:12.500Z,12.37
2023-02-09T07:08:39.468Z,13.13
2023-02-09T07:11:12.325Z,13.23
2023-02-09T07:13:39.251Z,12.33
2023-02-09T07:16:08.388Z,12.53
2023-02-09T07:18:35.969Z,12.67
2023-02-09T07:21:19.820Z,13.67
2023-02-09T07:23:53.316Z,13.53
2023-02-09T07:26:20.098Z,11.03
2023-02-09T07:28:47.120Z,10.10
2023-02-09T07:31:15.691Z,11.73
2023-02-09T07:33:42.610Z,12.00
2023-02-09T07:36:12.123Z,10.77
2023-02-09T07:38:39.450Z,10.90
2023-02-09T07:41:08.357Z,11.83
2023-02-09T07:43:35.211Z,10.83
2023-02-09T07:46:07.689Z,8.97
2023-02-09T07:48:35.581Z,11.07
2023-02-09T07:51:02.678Z,9.40
2023-02-09T07:53:29.952Z,9.43
2023-02-09T07:55:57.335Z,9.73
2023-02-09T07:58:24.060Z,9.37
2023-02-09T08:00:51.583Z,9.30
2023-02-09T08:03:23.137Z,8.93
2023-02-09T08:06:04.212Z,9.57
2023-02-09T08:08:31.068Z,9.20
2023-02-09T08:10:59.537Z,9.20
2023-02-09T08:13:30.635Z,7.43
2023-02-09T08:16:02.949Z,8.80
2023-02-09T08:18:34.444Z,8.93
2023-02-09T08:21:01.167Z,9.40
2023-02-09T08:23:34.381Z,9.07
2023-02-09T08:26:06.511Z,9.93
2023-02-09T08:28:43.657Z,8.40
2023-02-09T08:31:12.979Z,9.20
2023-02-09T08:33:40.417Z,9.00
2023-02-09T08:36:07.701Z,8.17
2023-02-09T08:38:35.349Z,9.13
2023-02-09T08:41:06.892Z,9.03
2023-02-09T08:43:33.837Z,8.93
2023-02-09T08:46:12.577Z,8.77
2023-02-09T08:48:42.204Z,7.93
2023-02-09T08:51:12.113Z,9.03
2023-02-09T08:53:39.211Z,7.53
2023-02-09T08:56:06.276Z,7.70
2023-02-09T08:58:33.526Z,8.03
2023-02-09T09:01:00.599Z,9.43
2023-02-09T09:03:31.335Z,8.43
2023-02-09T09:05:59.610Z,8.93
2023-02-09T09:08:26.456Z,7.87
2023-02-09T09:10:53.262Z,8.77
2023-02-09T09:13:20.891Z,8.87
2023-02-09T09:15:48.097Z,8.20
2023-02-09T09:18:15.118Z,8.13
2023-02-09T09:20:42.320Z,8.13
2023-02-09T09:23:09.561Z,7.93
2023-02-09T09:25:38.818Z,8.33
2023-02-09T09:28:06.564Z,8.50
2023-02-09T09:30:33.654Z,7.50
2023-02-09T09:33:00.502Z,7.73
2023-02-09T09:35:27.883Z,8.13
2023-02-09T09:37:57.332Z,8.07
2023-02-09T09:40:37.200Z,8.30
2023-02-09T09:43:07.710Z,8.40
2023-02-09T09:45:38.484Z,8.37
2023-02-09T09:48:07.294Z,8.10
2023-02-09T09:50:41.308Z,7.60
2023-02-09T09:53:17.467Z,9.03
2023-02-09T09:55:45.364Z,8.80
2023-02-09T09:58:17.792Z,8.63
2023-02-09T10:00:45.331Z,8.33
2023-02-09T10:03:15.266Z,8.30
2023-02-09T10:05:43.688Z,8.43
2023-02-09T10:08:10.425Z,8.93
2023-02-09T10:10:56.274Z,9.00
2023-02-09T10:13:32.275Z,8.43
2023-02-09T10:15:59.295Z,8.47
2023-02-09T10:18:26.426Z,9.87
2023-02-09T10:20:56.868Z,9.17
2023-02-09T10:23:45.532Z,9.27
2023-02-09T10:26:12.133Z,8.80
2023-02-09T10:28:42.386Z,9.47
2023-02-09T10:31:19.349Z,9.20
2023-02-09T10:33:50.352Z,10.10
2023-02-09T10:36:33.811Z,9.83
2023-02-09T10:39:12.877Z,10.50
2023-02-09T10:41:42.035Z,9.67
2023-02-09T10:44:25.116Z,10.63
2023-02-09T10:47:23.949Z,10.00
2023-02-09T10:50:01.208Z,9.97
2023-02-09T10:52:34.468Z,9.43
2023-02-09T10:55:16.993Z,9.73
2023-02-09T10:57:43.630Z,9.60
2023-02-09T11:00:16.284Z,9.87
2023-02-09T11:02:49.926Z,9.73
2023-02-09T11:05:22.696Z,9.30
2023-02-09T11:07:56.389Z,9.20
2023-02-09T11:10:23.579Z,9.00
2023-02-09T11:12:50.326Z,9.57
2023-02-09T11:15:27.864Z,9.23
2023-02-09T11:18:16.924Z,10.17
2023-02-09T11:20:51.780Z,9.77
2023-02-09T11:23:32.491Z,9.43
2023-02-09T11:26:07.522Z,8.57
2023-02-09T11:28:47.787Z,9.93
2023-02-09T11:31:46.807Z,9.87
2023-02-09T11:34:46.745Z,9.83
2023-02-09T11:37:25.588Z,9.10
2023-02-09T11:40:19.741Z,9.80
2023-02-09T11:43:01.874Z,9.50
2023-02-09T11:45:31.580Z,8.73
2023-02-09T11:48:08.969Z,9.43
2023-02-09T11:51:08.210Z,9.50
2023-02-09T11:53:43.944Z,9.83
2023-02-09T11:56:16.594Z,8.77
2023-02-09T11:59:06.432Z,9.33
2023-02-09T12:01:51.684Z,9.87
2023-02-09T12:04:47.320Z,9.23
2023-02-09T12:07:35.349Z,9.10
2023-02-09T12:10:44.632Z,10.07
2023-02-09T12:13:32.262Z,9.53
2023-02-09T12:16:08.014Z,9.10
2023-02-09T12:18:36.005Z,9.47
2023-02-09T12:21:05.521Z,8.93
2023-02-09T12:23:50.350Z,10.00
2023-02-09T12:26:17.009Z,9.90
2023-02-09T12:29:16.830Z,9.60
2023-02-09T12:32:06.866Z,10.67
2023-02-09T12:34:46.609Z,9.57
2023-02-09T12:37:13.218Z,10.03
2023-02-09T12:40:07.855Z,9.60
2023-02-09T12:42:44.060Z,9.97
2023-02-09T12:45:32.251Z,9.80
2023-02-09T12:48:11.743Z,9.20
2023-02-09T12:50:54.533Z,9.33
2023-02-09T12:53:24.475Z,10.13
2023-02-09T12:56:30.616Z,9.40
2023-02-09T12:59:17.824Z,11.43
2023-02-09T13:02:06.446Z,11.00
2023-02-09T13:04:50.688Z,11.30
2023-02-09T13:07:49.236Z,11.47
2023-02-09T13:10:22.692Z,11.47
2023-02-09T13:13:13.348Z,10.93
2023-02-09T13:16:04.674Z,11.50
2023-02-09T13:18:52.235Z,10.90
2023-02-09T13:21:36.105Z,14.63
2023-02-09T13:24:09.735Z,12.23
2023-02-09T13:26:48.922Z,10.97
2023-02-09T13:29:21.318Z,11.40
2023-02-09T13:32:17.551Z,11.37
2023-02-09T13:34:56.745Z,10.77
2023-02-09T13:37:35.550Z,11.47
2023-02-09T13:40:15.731Z,11.17
2023-02-09T13:42:53.934Z,11.67
2023-02-09T13:45:21.258Z,11.67
2023-02-09T13:47:48.066Z,11.27
2023-02-09T13:50:18.412Z,11.03
2023-02-09T13:52:45.384Z,12.23
2023-02-09T13:55:13.663Z,10.47
2023-02-09T13:57:43.771Z,11.13
2023-02-09T14:00:13.449Z,11.60
2023-02-09T14:02:46.943Z,11.57
2023-02-09T14:05:32.377Z,11.20
2023-02-09T14:07:59.868Z,11.03
2023-02-09T14:10:28.969Z,11.67
2023-02-09T14:13:03.992Z,10.77
2023-02-09T14:15:52.290Z,10.40
2023-02-09T14:18:28.116Z,11.07
2023-02-09T14:21:04.025Z,10.83
2023-02-09T14:23:35.008Z,11.03
2023-02-09T14:26:15.399Z,11.13
2023-02-09T14:28:45.720Z,11.07
2023-02-09T14:31:19.513Z,11.73
2023-02-09T14:33:51.046Z,11.70
2023-02-09T14:36:36.453Z,12.63
2023-02-09T14:39:16.392Z,10.00
2023-02-09T14:42:18.610Z,11.70
2023-02-09T14:44:55.623Z,11.73
2023-02-09T14:47:39.322Z,11.50
2023-02-09T14:50:21.963Z,11.20
2023-02-09T14:52:53.402Z,12.13
2023-02-09T14:55:27.415Z,11.53
2023-02-09T14:57:54.148Z,11.77
2023-02-09T15:00:24.724Z,11.47
2023-02-09T15:02:53.037Z,12.83
2023-02-09T15:05:21.245Z,11.83
2023-02-09T15:07:51.210Z,12.17
2023-02-09T15:10:32.077Z,12.40
2023-02-09T15:12:59.652Z,12.10
2023-02-09T15:15:26.830Z,13.27
2023-02-09T15:17:55.285Z,12.33
2023-02-09T15:20:26.274Z,13.17
2023-02-09T15:22:54.334Z,12.40
2023-02-09T15:25:22.909Z,12.53
2023-02-09T15:27:57.283Z,12.53
2023-02-09T15:30:28.159Z,13.27
2023-02-09T15:32:54.846Z,13.60
2023-02-09T15:35:27.618Z,13.10
2023-02-09T15:38:02.111Z,13.60
2023-02-09T15:40:53.065Z,13.37
2023-02-09T15:43:40.148Z,12.87
2023-02-09T15:46:26.842Z,13.53
2023-02-09T15:48:53.535Z,13.60
2023-02-09T15:51:22.106Z,13.93
2023-02-09T15:53:49.011Z,13.27
2023-02-09T15:56:16.220Z,14.00
2023-02-09T15:58:45.910Z,13.50
2023-02-09T16:01:14.583Z,13.97
2023-02-09T16:03:41.393Z,12.87
2023-02-09T16:06:16.069Z,14.07
2023-02-09T16:08:44.192Z,13.80
2023-02-09T16:11:23.197Z,13.77
2023-02-09T16:13:50.453Z,12.97
2023-02-09T16:16:20.042Z,13.30
2023-02-09T16:18:47.245Z,14.17
2023-02-09T16:21:23.839Z,14.43
2023-02-09T16:23:53.066Z,13.97
2023-02-09T16:26:20.965Z,12.90
2023-02-09T16:28:47.716Z,14.53
2023-02-09T16:31:14.511Z,14.73
2023-02-09T16:33:43.214Z,14.63
2023-02-09T16:36:17.098Z,14.53
2023-02-09T16:38:44.179Z,14.60
2023-02-09T16:41:41.133Z,15.47
2023-02-09T16:44:19.004Z,14.47
2023-02-09T16:46:48.283Z,14.13
2023-02-09T16:49:31.634Z,14.77
2023-02-09T16:52:02.693Z,14.03
2023-02-09T16:54:33.134Z,14.77
2023-02-09T16:57:00.920Z,15.13
2023-02-09T16:59:27.664Z,15.80
2023-02-09T17:01:54.496Z,14.50
2023-02-09T17:04:21.229Z,15.90
2023-02-09T17:06:52.752Z,15.67
2023-02-09T17:09:19.427Z,15.23
2023-02-09T17:11:46.121Z,15.47
2023-02-09T17:14:12.821Z,15.97
2023-02-09T17:16:43.375Z,16.67
2023-02-09T17:19:15.388Z,16.87
2023-02-09T17:21:42.496Z,16.40
2023-02-09T17:24:18.392Z,16.43
2023-02-09T17:26:45.094Z,17.03
2023-02-09T17:29:12.097Z,16.27
2023-02-09T17:31:52.750Z,17.70
2023-02-09T17:34:26.866Z,17.13
2023-02-09T17:36:53.576Z,17.00
2023-02-09T17:39:20.551Z,18.13
2023-02-09T17:41:49.898Z,18.60
2023-02-09T17:44:26.376Z,17.20
2023-02-09T17:46:58.943Z,17.53
2023-02-09T17:49:25.666Z,18.20
2023-02-09T17:51:52.944Z,18.70
2023-02-09T17:54:20.828Z,18.93
2023-02-09T17:56:47.831Z,18.40
2023-02-09T17:59:14.905Z,19.20
2023-02-09T18:01:49.483Z,18.43
2023-02-09T18:04:22.200Z,18.93
2023-02-09T18:06:48.862Z,19.23
2023-02-09T18:09:15.555Z,19.37
2023-02-09T18:11:45.345Z,20.87
2023-02-09T18:14:13.966Z,20.07
2023-02-09T18:16:42.559Z,20.77
2023-02-09T18:19:10.882Z,20.87
2023-02-09T18:21:38.377Z,20.03
2023-02-09T18:24:06.372Z,20.63
2023-02-09T18:26:33.827Z,21.47
2023-02-09T18:29:00.547Z,21.93
2023-02-09T18:31:27.280Z,24.27
2023-02-09T18:33:56.045Z,22.23
2023-02-09T18:36:22.773Z,22.57
2023-02-09T18:38:50.985Z,22.33
2023-02-09T18:41:17.755Z,24.10
2023-02-09T18:43:44.730Z,22.40
2023-02-09T18:46:14.528Z,22.10
2023-02-09T18:48:41.285Z,22.90
2023-02-09T18:51:09.260Z,24.33
2023-02-09T18:53:37.613Z,26.35
2023-02-09T18:56:04.540Z,23.40
2023-02-09T18:58:31.481Z,21.83
2023-02-09T19:00:58.371Z,23.77
2023-02-09T19:03:25.178Z,23.27
2023-02-09T19:05:51.977Z,23.27
2023-02-09T19:08:18.652Z,23.53
2023-02-09T19:10:45.350Z,24.20
2023-02-09T19:13:11.998Z,24.17
2023-02-09T19:15:39.974Z,24.17
2023-02-09T19:18:06.682Z,23.20
2023-02-09T19:20:34.295Z,22.03
2023-02-09T19:23:02.547Z,23.33
2023-02-09T19:25:30.413Z,22.97
2023-02-09T19:27:57.219Z,25.27
2023-02-09T19:30:25.130Z,24.33
2023-02-09T19:32:54.065Z,25.47
2023-02-09T19:35:22.843Z,24.97
2023-02-09T19:37:57.383Z,24.57
2023-02-09T19:40:35.699Z,25.13
2023-02-09T19:43:03.838Z,22.83
2023-02-09T19:45:36.279Z,24.47
2023-02-09T19:48:05.592Z,26.43
2023-02-09T19:50:32.736Z,24.67
2023-02-09T19:52:59.545Z,25.57
2023-02-09T19:55:26.215Z,25.67
2023-02-09T19:57:52.878Z,27.97
2023-02-09T20:00:19.706Z,25.57
2023-02-09T20:02:47.343Z,26.80
2023-02-09T20:05:16.089Z,26.83
2023-02-09T20:07:43.485Z,27.33
2023-02-09T20:10:10.850Z,24.60
2023-02-09T20:12:37.483Z,26.43
2023-02-09T20:15:04.301Z,27.97
2023-02-09T20:17:30.927Z,27.80
2023-02-09T20:19:57.698Z,26.97
2023-02-09T20:22:24.355Z,26.63
2023-02-09T20:24:51.046Z,28.37
2023-02-09T20:27:19.105Z,28.70
2023-02-09T20:29:45.796Z,28.73
2023-02-09T20:32:12.560Z,26.53
2023-02-09T20:34:39.285Z,30.60
2023-02-09T20:37:05.929Z,28.73
2023-02-09T20:39:32.891Z,28.20
2023-02-09T20:42:18.794Z,30.50
2023-02-09T20:45:04.160Z,27.10
2023-02-09T20:47:30.889Z,28.43
2023-02-09T20:50:00.060Z,28.70
2023-02-09T20:52:29.240Z,29.73
2023-02-09T20:54:56.552Z,28.77
2023-02-09T20:57:29.267Z,29.60
2023-02-09T21:00:00.113Z,28.40
2023-02-09T21:02:27.573Z,27.07
2023-02-09T21:04:56.206Z,28.13
2023-02-09T21:07:23.095Z,29.10
2023-02-09T21:09:49.811Z,28.67
2023-02-09T21:12:16.501Z,29.60
2023-02-09T21:14:46.445Z,29.13
2023-02-09T21:17:13.596Z,27.80
2023-02-09T21:19:40.701Z,27.30
2023-02-09T21:22:07.408Z,28.33
2023-02-09T21:24:34.275Z,26.90
2023-02-09T21:27:00.903Z,27.47
2023-02-09T21:29:29.208Z,27.83
2023-02-09T21:31:56.555Z,26.20
2023-02-09T21:34:23.516Z,25.87
2023-02-09T21:36:50.251Z,25.10
2023-02-09T21:39:16.966Z,24.70
2023-02-09T21:42:02.188Z,24.97
2023-02-09T21:44:29.084Z,24.70
2023-02-09T21:46:55.764Z,23.80
2023-02-09T21:49:22.594Z,24.20
2023-02-09T21:51:49.728Z,23.57
2023-02-09T21:54:17.906Z,23.33
2023-02-09T21:56:45.152Z,22.97
2023-02-09T21:59:12.020Z,21.60
2023-02-09T22:01:39.571Z,23.10
2023-02-09T22:04:06.357Z,21.97
2023-02-09T22:06:33.154Z,21.43
2023-02-09T22:09:02.772Z,22.73
2023-02-09T22:11:29.919Z,21.17
2023-02-09T22:13:56.631Z,21.97
2023-02-09T22:16:23.956Z,20.67
2023-02-09T22:18:50.973Z,20.23
2023-02-09T22:21:18.352Z,22.10
2023-02-09T22:23:45.118Z,22.77
2023-02-09T22:26:15.057Z,21.17
2023-02-09T22:28:42.486Z,22.33
2023-02-09T22:31:12.783Z,20.53
2023-02-09T22:33:40.939Z,20.47
2023-02-09T22:36:13.700Z,20.50
2023-02-09T22:38:40.719Z,20.47
2023-02-09T22:41:21.282Z,21.70
2023-02-09T22:43:58.678Z,20.90
2023-02-09T22:46:28.630Z,22.03
2023-02-09T22:48:58.192Z,23.07
2023-02-09T22:51:28.310Z,22.27
2023-02-09T22:53:58.543Z,23.67
2023-02-09T22:56:26.341Z,22.67
2023-02-09T22:58:54.432Z,22.97
2023-02-09T23:01:21.671Z,23.17
2023-02-09T23:03:48.788Z,22.30
2023-02-09T23:06:20.732Z,22.87
2023-02-09T23:08:47.739Z,21.57
2023-02-09T23:11:17.155Z,22.50
2023-02-09T23:13:44.199Z,20.40
2023-02-09T23:16:16.640Z,21.30
2023-02-09T23:18:49.670Z,19.83
2023-02-09T23:21:17.809Z,20.33
2023-02-09T23:23:45.024Z,19.43
2023-02-09T23:26:12.387Z,21.30
2023-02-09T23:28:39.129Z,20.17
2023-02-09T23:31:07.543Z,19.33
2023-02-09T23:33:35.703Z,18.47
2023-02-09T23:36:07.495Z,19.90
2023-02-09T23:38:34.595Z,20.40
2023-02-09T23:41:06.732Z,21.13
2023-02-09T23:43:34.300Z,20.30
2023-02-09T23:46:02.340Z,19.00
2023-02-09T23:48:29.091Z,19.33
2023-02-09T23:51:04.185Z,19.87
2023-02-09T23:53:31.463Z,20.47
2023-02-09T23:56:03.785Z,19.07
2023-02-09T23:58:39.247Z,18.90
